Mumbai, India

3:59 PM IST on May 29, 2015 (GMT +0530)
Arabian sea | | Change Station
CLOSE
Current Station
Personal Weather Station
Location: Mumbai, MAHARASHTRA
Elevation: 125 ft
Nearby Weather Stations

Elev 125 ft 19.13 °N, 72.91 °E | Updated 4 seconds ago

Smoke
Smoke
93.4 °F
Feels Like 110 °F
N
5.6
Wind Variable Wind from SW
Gusts 7.4 mph

Today
High -- | Low -- °F
--% Chance of Precip.
Yesterday
High -- | Low -- °F
Precip. -- in
6:00 AM 7:11 PM
Waxing Gibbous, 82% visible
Pressure 29.71 in
Visibility 3.1 miles
Clouds Scattered Clouds 2000 ft
Heat Index 110 °F
Dew Point 78 °F
Humidity 62%
Rainfall 0.00 in
Snow Depth Not available.
UV 4.0 out of 12
Pollen Not available.
Air Quality Not available.
Flu Activity Not available.
METAR VABB 291010Z 29010G20KT 5000 FU SCT020 34/26 Q1006 NOSIG

More Conditions Fewer Conditions

Pressure 29.71 in
Visibility 3.1 miles
Clouds Scattered Clouds 2000 ft
Heat Index 110 °F
Dew Point 78 °F
Humidity 62%
Rainfall 0.00 in
Snow Depth Not available.
UV 4.0 out of 12
Pollen Not available.
Air Quality Not available.
Flu Activity Not available.
METAR VABB 291010Z 29010G20KT 5000 FU SCT020 34/26 Q1006 NOSIG

More Conditions Fewer Conditions

10-Day Weather Forecast

Almanac

Astronomy

May. 29, 2015 Rise Set
Actual Time
Civil Twilight
Nautical Twilight
Astronomical Twilight
Moon
Length of Visible Light
Length of Day
Tomorrow will be .
, % of the Moon is Illuminated

Today's Extremes

Country Highs Country Lows

Community

WunderPhotos

Upload Photos

1,825,228 photos uploaded!

WunderBlogs® & News

Nearby

Air Quality

  Air Quality AQ Index Pollutant
Not available.

Snow Depth

Station Depth Elevation

Earthquake Activity

City Distance Mag. Time & Date
Minimum magnitude displayed is 2.5.

Coastal Water Temperatures

Place Temperature

Stations

Nearby Weather Stations

Station Location Temp. Windchill Dew Point Humidity Wind Precip. Elev Updated Type